Terminal Aerodrome Forecast
Issued by NWS

Home | Current Version | Previous Version | Text Only | Print | Product List | Glossary On
Versions: 1 2 3 4 5 6 7 8 9 10 11 12 13 14 15 16 17 18 19 20 21 22 23 24 25 26 27 28 29 30 31 32 33 34 35 36 37 38 39 40 41 42 43 44 45 46 47
000
FTUS43 KDMX 141126
TAFOTM
TAF
KOTM 141126Z 1412/1512 28005KT P6SM FEW060
     FM141500 33014KT P6SM VCSH SCT050 BKN100
     FM141800 32016G25KT P6SM SCT050
     FM150000 32007KT P6SM SKC=

USA.gov is the U.S. government's official web portal to all federal, state and local government web resources and services.